createdAt,value
2019-02-12T00:00:56.141Z,2.60
2019-02-12T00:02:01.383Z,3.23
2019-02-12T00:03:06.554Z,2.33
2019-02-12T00:04:11.846Z,2.73
2019-02-12T00:05:17.147Z,2.47
2019-02-12T00:06:22.429Z,3.10
2019-02-12T00:07:27.594Z,2.93
2019-02-12T00:08:32.902Z,4.00
2019-02-12T00:09:38.222Z,3.03
2019-02-12T00:10:43.453Z,3.67
2019-02-12T00:11:48.683Z,3.27
2019-02-12T00:12:53.936Z,3.27
2019-02-12T00:13:59.214Z,3.13
2019-02-12T00:15:04.565Z,3.33
2019-02-12T00:16:10.819Z,2.57
2019-02-12T00:17:16.007Z,3.30
2019-02-12T00:18:21.192Z,3.57
2019-02-12T00:19:26.388Z,3.13
2019-02-12T00:20:31.626Z,3.57
2019-02-12T00:21:36.834Z,3.37
2019-02-12T00:22:42.102Z,3.47
2019-02-12T00:23:47.347Z,2.80
2019-02-12T00:24:52.590Z,2.60
2019-02-12T00:25:57.852Z,2.67
2019-02-12T00:27:03.404Z,3.43
2019-02-12T00:28:08.599Z,3.53
2019-02-12T00:29:13.800Z,3.10
2019-02-12T00:30:19.075Z,3.80
2019-02-12T00:31:24.251Z,3.03
2019-02-12T00:32:29.511Z,3.87
2019-02-12T00:33:34.813Z,3.10
2019-02-12T00:34:41.033Z,3.77
2019-02-12T00:35:46.160Z,2.83
2019-02-12T00:36:51.353Z,3.33
2019-02-12T00:37:56.554Z,3.47
2019-02-12T00:39:01.778Z,2.90
2019-02-12T00:40:08.985Z,2.80
2019-02-12T00:41:14.231Z,3.40
2019-02-12T00:42:19.482Z,3.43
2019-02-12T00:43:25.009Z,3.13
2019-02-12T00:44:30.274Z,3.27
2019-02-12T00:45:35.539Z,3.47
2019-02-12T00:46:40.734Z,3.40
2019-02-12T00:47:46.006Z,3.87
2019-02-12T00:48:51.160Z,3.40
2019-02-12T00:49:56.351Z,4.00
2019-02-12T00:51:01.585Z,3.07
2019-02-12T00:52:06.851Z,3.60
2019-02-12T00:53:12.120Z,2.73
2019-02-12T00:54:17.304Z,3.17
2019-02-12T00:55:22.558Z,4.13
2019-02-12T00:56:27.822Z,3.77
2019-02-12T00:57:33.135Z,3.70
2019-02-12T00:58:38.372Z,3.13
2019-02-12T00:59:43.609Z,3.67
2019-02-12T01:00:48.931Z,3.60
2019-02-12T01:01:54.250Z,3.33
2019-02-12T01:02:59.517Z,3.63
2019-02-12T01:04:04.734Z,4.10
2019-02-12T01:05:10.002Z,3.92
2019-02-12T01:06:15.341Z,3.17
2019-02-12T01:07:20.607Z,2.77
2019-02-12T01:08:25.860Z,2.95
2019-02-12T01:09:31.132Z,4.27
2019-02-12T01:10:36.301Z,3.73
2019-02-12T01:11:41.492Z,2.87
2019-02-12T01:12:46.666Z,2.77
2019-02-12T01:13:51.765Z,3.57
2019-02-12T01:14:57.036Z,3.37
2019-02-12T01:16:02.318Z,3.13
2019-02-12T01:17:07.631Z,3.60
2019-02-12T01:18:12.868Z,2.90
2019-02-12T01:19:18.168Z,4.77
2019-02-12T01:20:23.363Z,3.13
2019-02-12T01:21:28.558Z,3.60
2019-02-12T01:22:33.833Z,3.70
2019-02-12T01:23:39.056Z,3.10
2019-02-12T01:24:44.305Z,2.97
2019-02-12T01:25:49.490Z,3.33
2019-02-12T01:26:54.742Z,4.13
2019-02-12T01:27:59.984Z,2.97
2019-02-12T01:29:05.231Z,3.93
2019-02-12T01:30:13.013Z,3.03
2019-02-12T01:31:18.296Z,3.27
2019-02-12T01:32:23.592Z,3.30
2019-02-12T01:33:28.857Z,2.80
2019-02-12T01:34:34.000Z,3.20
2019-02-12T01:35:39.120Z,3.07
2019-02-12T01:36:44.378Z,2.23
2019-02-12T01:37:49.520Z,2.83
2019-02-12T01:38:54.768Z,2.27
2019-02-12T01:39:59.995Z,2.43
2019-02-12T01:41:05.239Z,3.37
2019-02-12T01:42:10.475Z,2.97
2019-02-12T01:43:15.771Z,2.98
2019-02-12T01:44:21.046Z,2.77
2019-02-12T01:45:26.203Z,2.93
2019-02-12T01:46:31.534Z,3.30
2019-02-12T01:47:36.779Z,3.63
2019-02-12T01:48:42.048Z,3.50
2019-02-12T01:49:47.223Z,3.37
2019-02-12T01:50:52.519Z,2.73
2019-02-12T01:51:57.861Z,3.07
2019-02-12T01:53:03.134Z,5.73
2019-02-12T01:54:08.319Z,2.80
2019-02-12T01:55:13.596Z,3.10
2019-02-12T01:56:18.939Z,3.27
2019-02-12T01:57:24.167Z,3.00
2019-02-12T01:58:29.318Z,3.63
2019-02-12T01:59:34.596Z,3.60
2019-02-12T02:00:39.834Z,3.63
2019-02-12T02:01:45.195Z,3.80
2019-02-12T02:02:50.459Z,2.87
2019-02-12T02:03:55.654Z,3.50
2019-02-12T02:05:00.940Z,3.40
2019-02-12T02:06:06.224Z,3.17
2019-02-12T02:07:11.491Z,3.10
2019-02-12T02:08:16.743Z,2.77
2019-02-12T02:09:22.121Z,2.70
2019-02-12T02:10:27.273Z,3.70
2019-02-12T02:11:32.521Z,3.60
2019-02-12T02:12:37.698Z,2.52
2019-02-12T02:13:42.977Z,2.98
2019-02-12T02:14:48.189Z,4.00
2019-02-12T02:15:53.450Z,2.83
2019-02-12T02:16:58.709Z,3.47
2019-02-12T02:18:03.992Z,3.47
2019-02-12T02:19:09.313Z,3.30
2019-02-12T02:20:15.012Z,3.27
2019-02-12T02:21:20.328Z,3.13
2019-02-12T02:22:25.640Z,2.60
2019-02-12T02:23:30.828Z,3.40
2019-02-12T02:24:36.044Z,3.50
2019-02-12T02:25:41.301Z,2.90
2019-02-12T02:26:46.466Z,2.97
2019-02-12T02:27:51.747Z,2.93
2019-02-12T02:28:56.889Z,3.73
2019-02-12T02:30:02.121Z,3.80
2019-02-12T02:31:07.350Z,2.77
2019-02-12T02:32:12.637Z,2.77
2019-02-12T02:33:17.789Z,2.93
2019-02-12T02:34:23.015Z,3.30
2019-02-12T02:35:28.188Z,2.47
2019-02-12T02:36:33.451Z,3.13
2019-02-12T02:37:38.780Z,3.07
2019-02-12T02:38:44.054Z,2.20
2019-02-12T02:39:49.317Z,3.90
2019-02-12T02:40:54.551Z,3.30
2019-02-12T02:41:59.844Z,3.90
2019-02-12T02:43:05.107Z,3.67
2019-02-12T02:44:10.350Z,3.10
2019-02-12T02:45:15.521Z,3.03
2019-02-12T02:46:20.744Z,3.07
2019-02-12T02:47:26.029Z,3.67
2019-02-12T02:48:31.294Z,3.13
2019-02-12T02:49:36.468Z,2.57
2019-02-12T02:50:41.756Z,2.87
2019-02-12T02:51:53.676Z,2.63
2019-02-12T02:52:54.456Z,3.00
2019-02-12T02:53:59.722Z,2.80
2019-02-12T02:55:05.129Z,2.58
2019-02-12T02:56:10.393Z,2.50
2019-02-12T02:57:15.692Z,2.90
2019-02-12T02:58:20.970Z,2.65
2019-02-12T02:59:26.042Z,2.30
2019-02-12T03:00:31.332Z,2.40
2019-02-12T03:01:36.517Z,3.07
2019-02-12T03:02:41.770Z,2.90
2019-02-12T03:03:47.033Z,2.97
2019-02-12T03:04:52.199Z,3.17
2019-02-12T03:05:57.302Z,2.97
2019-02-12T03:07:02.556Z,2.70
2019-02-12T03:08:07.692Z,3.10
2019-02-12T03:09:13.961Z,2.83
2019-02-12T03:10:19.188Z,2.23
2019-02-12T03:11:24.539Z,2.37
2019-02-12T03:12:29.857Z,2.37
2019-02-12T03:13:35.012Z,3.33
2019-02-12T03:14:40.310Z,2.20
2019-02-12T03:15:45.570Z,2.47
2019-02-12T03:16:50.880Z,2.03
2019-02-12T03:17:56.049Z,2.72
2019-02-12T03:19:01.353Z,2.83
2019-02-12T03:20:07.756Z,2.73
2019-02-12T03:21:13.043Z,3.20
2019-02-12T03:22:18.186Z,2.77
2019-02-12T03:23:23.458Z,2.87
2019-02-12T03:24:28.661Z,3.83
2019-02-12T03:25:33.939Z,2.23
2019-02-12T03:26:39.203Z,2.30
2019-02-12T03:27:44.470Z,2.70
2019-02-12T03:28:49.690Z,2.33
2019-02-12T03:29:54.858Z,2.77
2019-02-12T03:31:00.195Z,2.80
2019-02-12T03:32:05.468Z,2.40
2019-02-12T03:33:10.818Z,3.47
2019-02-12T03:34:16.003Z,2.50
2019-02-12T03:35:21.310Z,2.17
2019-02-12T03:36:26.790Z,2.55
2019-02-12T03:37:32.044Z,2.50
2019-02-12T03:38:37.291Z,2.15
2019-02-12T03:39:42.597Z,2.50
2019-02-12T03:40:47.819Z,2.37
2019-02-12T03:41:53.105Z,2.50
2019-02-12T03:42:58.345Z,3.00
2019-02-12T03:44:03.454Z,2.70
2019-02-12T03:45:09.801Z,3.30
2019-02-12T03:46:15.081Z,3.17
2019-02-12T03:47:20.367Z,3.15
2019-02-12T03:48:25.546Z,2.27
2019-02-12T03:49:30.817Z,2.63
2019-02-12T03:50:36.103Z,3.73
2019-02-12T03:51:41.315Z,2.53
2019-02-12T03:52:46.542Z,3.53
2019-02-12T03:53:51.786Z,2.90
2019-02-12T03:54:57.095Z,3.03
2019-02-12T03:56:02.280Z,2.50
2019-02-12T03:57:07.459Z,3.00
2019-02-12T03:58:12.738Z,2.50
2019-02-12T03:59:17.884Z,3.03
2019-02-12T04:00:23.185Z,3.13
2019-02-12T04:01:28.496Z,2.60
2019-02-12T04:02:34.118Z,2.40
2019-02-12T04:03:39.518Z,3.02
2019-02-12T04:04:44.656Z,2.93
2019-02-12T04:05:49.979Z,2.50
2019-02-12T04:06:55.268Z,2.85
2019-02-12T04:08:00.549Z,3.63
2019-02-12T04:09:05.941Z,2.90
2019-02-12T04:10:11.269Z,2.60
2019-02-12T04:11:16.588Z,3.47
2019-02-12T04:12:21.880Z,2.77
2019-02-12T04:13:27.102Z,2.50
2019-02-12T04:14:33.432Z,3.22
2019-02-12T04:15:38.782Z,2.75
2019-02-12T04:16:44.019Z,2.60
2019-02-12T04:17:49.302Z,2.72
2019-02-12T04:18:54.570Z,2.83
2019-02-12T04:19:59.849Z,2.62
2019-02-12T04:21:05.061Z,2.37
2019-02-12T04:22:10.202Z,2.67
2019-02-12T04:23:15.508Z,3.13
2019-02-12T04:24:20.743Z,3.03
2019-02-12T04:25:25.971Z,3.17
2019-02-12T04:26:31.217Z,2.80
2019-02-12T04:27:36.495Z,2.92
2019-02-12T04:28:41.791Z,3.05
2019-02-12T04:29:47.078Z,2.85
2019-02-12T04:30:52.328Z,2.97
2019-02-12T04:31:57.703Z,2.95
2019-02-12T04:33:02.915Z,2.95
2019-02-12T04:34:08.210Z,2.17
2019-02-12T04:35:13.429Z,3.00
2019-02-12T04:36:18.705Z,2.90
2019-02-12T04:37:23.975Z,3.43
2019-02-12T04:38:29.282Z,3.63
2019-02-12T04:39:34.581Z,3.63
2019-02-12T04:40:39.869Z,2.95
2019-02-12T04:41:45.036Z,3.67
2019-02-12T04:42:50.229Z,3.27
2019-02-12T04:43:55.455Z,3.17
2019-02-12T04:45:00.603Z,3.17
2019-02-12T04:46:05.885Z,3.77
2019-02-12T04:47:10.996Z,4.20
2019-02-12T04:48:16.286Z,3.37
2019-02-12T04:49:21.550Z,3.72
2019-02-12T04:50:26.836Z,3.27
2019-02-12T04:51:32.146Z,4.10
2019-02-12T04:52:37.493Z,3.50
2019-02-12T04:53:42.794Z,3.22
2019-02-12T04:54:48.536Z,3.33
2019-02-12T04:55:53.704Z,3.63
2019-02-12T04:56:58.992Z,3.47
2019-02-12T04:58:04.348Z,3.62
2019-02-12T04:59:09.617Z,4.10
2019-02-12T05:00:15.833Z,3.75
2019-02-12T05:01:21.047Z,4.20
2019-02-12T05:02:26.295Z,3.60
2019-02-12T05:03:31.540Z,3.33
2019-02-12T05:04:36.845Z,4.00
2019-02-12T05:05:42.023Z,4.47
2019-02-12T05:06:47.209Z,3.83
2019-02-12T05:07:52.461Z,3.70
2019-02-12T05:09:18.504Z,3.75
2019-02-12T05:10:24.401Z,3.95
2019-02-12T05:11:29.540Z,4.28
2019-02-12T05:12:34.788Z,3.98
2019-02-12T05:13:40.037Z,3.90
2019-02-12T05:14:45.286Z,4.60
2019-02-12T05:15:50.492Z,5.05
2019-02-12T05:16:55.681Z,3.80
2019-02-12T05:18:00.906Z,4.77
2019-02-12T05:19:06.181Z,3.75
2019-02-12T05:20:12.595Z,3.42
2019-02-12T05:21:17.883Z,3.80
2019-02-12T05:22:23.050Z,4.23
2019-02-12T05:23:28.390Z,4.95
2019-02-12T05:24:33.572Z,3.77
2019-02-12T05:25:38.915Z,4.22
2019-02-12T05:26:44.212Z,4.47
2019-02-12T05:27:49.514Z,4.28
2019-02-12T05:28:54.748Z,5.53
2019-02-12T05:29:59.906Z,4.37
2019-02-12T05:31:05.083Z,4.25
2019-02-12T05:32:10.305Z,4.58
2019-02-12T05:33:15.503Z,4.47
2019-02-12T05:34:20.765Z,4.65
2019-02-12T05:35:26.002Z,4.17
2019-02-12T05:36:31.164Z,4.87
2019-02-12T05:37:36.502Z,4.12
2019-02-12T05:38:41.747Z,5.25
2019-02-12T05:39:46.996Z,4.00
2019-02-12T05:40:52.314Z,4.00
2019-02-12T05:41:57.517Z,4.90
2019-02-12T05:43:02.790Z,4.43
2019-02-12T05:44:08.094Z,4.60
2019-02-12T05:45:13.263Z,4.90
2019-02-12T05:46:18.445Z,4.33
2019-02-12T05:47:23.682Z,4.40
2019-02-12T05:48:28.928Z,4.67
2019-02-12T05:49:34.152Z,4.30
2019-02-12T05:50:39.470Z,4.70
2019-02-12T05:51:44.670Z,4.83
2019-02-12T05:52:54.336Z,3.98
2019-02-12T05:53:56.875Z,3.97
2019-02-12T05:55:02.123Z,5.42
2019-02-12T05:56:07.415Z,4.13
2019-02-12T05:57:12.618Z,5.17
2019-02-12T05:58:17.920Z,4.50
2019-02-12T05:59:23.153Z,5.25
2019-02-12T06:00:30.365Z,5.00
2019-02-12T06:01:35.529Z,4.57
2019-02-12T06:02:41.080Z,4.50
2019-02-12T06:03:46.417Z,4.62
2019-02-12T06:04:51.684Z,5.10
2019-02-12T06:05:56.931Z,6.20
2019-02-12T06:07:02.187Z,4.97
2019-02-12T06:08:07.392Z,4.95
2019-02-12T06:09:12.595Z,5.10
2019-02-12T06:10:17.891Z,4.87
2019-02-12T06:11:23.282Z,5.10
2019-02-12T06:12:28.599Z,4.90
2019-02-12T06:13:36.650Z,4.53
2019-02-12T06:14:41.889Z,4.80
2019-02-12T06:15:47.348Z,4.63
2019-02-12T06:16:52.630Z,4.95
2019-02-12T06:17:57.943Z,5.70
2019-02-12T06:19:03.109Z,6.07
2019-02-12T06:20:08.435Z,7.03
2019-02-12T06:21:13.751Z,5.22
2019-02-12T06:22:19.041Z,6.05
2019-02-12T06:23:24.249Z,5.72
2019-02-12T06:24:29.455Z,5.70
2019-02-12T06:25:34.735Z,5.85
2019-02-12T06:26:40.505Z,5.30
2019-02-12T06:27:45.782Z,5.37
2019-02-12T06:28:51.098Z,5.67
2019-02-12T06:29:56.463Z,5.60
2019-02-12T06:31:01.745Z,5.58
2019-02-12T06:32:08.012Z,6.05
2019-02-12T06:33:13.291Z,6.30
2019-02-12T06:34:18.589Z,6.17
2019-02-12T06:35:23.993Z,5.95
2019-02-12T06:36:29.313Z,5.63
2019-02-12T06:37:34.528Z,6.75
2019-02-12T06:38:39.952Z,6.20
2019-02-12T06:39:45.208Z,6.30
2019-02-12T06:40:50.562Z,6.27
2019-02-12T06:41:55.810Z,6.27
2019-02-12T06:43:00.986Z,6.27
2019-02-12T06:44:06.252Z,6.60
2019-02-12T06:45:11.901Z,7.37
2019-02-12T06:46:17.162Z,6.90
2019-02-12T06:47:22.364Z,6.33
2019-02-12T06:48:27.658Z,6.73
2019-02-12T06:49:33.057Z,6.70
2019-02-12T06:50:38.382Z,6.47
2019-02-12T06:51:43.690Z,6.72
2019-02-12T06:52:48.868Z,6.90
2019-02-12T06:53:54.116Z,7.50
2019-02-12T06:54:59.474Z,7.60
2019-02-12T06:56:04.718Z,7.30
2019-02-12T06:57:10.024Z,6.67
2019-02-12T06:58:15.240Z,6.90
2019-02-12T06:59:20.479Z,7.30
2019-02-12T07:00:25.784Z,7.90
2019-02-12T07:01:31.088Z,7.70
2019-02-12T07:03:10.068Z,7.25
2019-02-12T07:04:24.124Z,7.87
2019-02-12T07:05:29.363Z,7.55
2019-02-12T07:06:50.046Z,7.25
2019-02-12T07:08:39.409Z,7.95
2019-02-12T07:09:51.782Z,8.73
2019-02-12T07:10:58.673Z,11.30
2019-02-12T07:13:06.018Z,7.47
2019-02-12T07:14:47.030Z,7.53
2019-02-12T07:16:30.835Z,7.70
2019-02-12T07:18:12.840Z,8.20
2019-02-12T07:19:49.430Z,7.87
2019-02-12T07:21:37.721Z,7.40
2019-02-12T07:23:33.732Z,7.42
2019-02-12T07:25:17.220Z,7.53
2019-02-12T07:27:01.374Z,7.92
2019-02-12T07:28:23.979Z,8.83
2019-02-12T07:29:51.072Z,7.78
2019-02-12T07:31:39.265Z,7.87
2019-02-12T07:33:19.198Z,6.90
2019-02-12T07:35:01.487Z,8.48
2019-02-12T07:36:54.944Z,7.80
2019-02-12T07:38:36.696Z,8.40
2019-02-12T07:40:41.457Z,6.78
2019-02-12T07:42:15.682Z,8.47
2019-02-12T07:43:42.624Z,9.20
2019-02-12T07:45:34.906Z,7.87
2019-02-12T07:47:02.610Z,7.40
2019-02-12T07:48:55.111Z,7.40
2019-02-12T07:50:59.536Z,7.87
2019-02-12T07:52:43.959Z,7.53
2019-02-12T07:54:45.550Z,7.62
2019-02-12T07:56:35.819Z,8.93
2019-02-12T07:58:33.616Z,7.57
2019-02-12T08:00:05.646Z,6.87
2019-02-12T08:02:02.942Z,7.57
2019-02-12T08:03:34.178Z,8.33
2019-02-12T08:05:04.526Z,7.60
2019-02-12T08:06:40.291Z,7.27
2019-02-12T08:08:23.116Z,7.73
2019-02-12T08:10:07.618Z,7.58
2019-02-12T08:11:40.717Z,8.90
2019-02-12T08:13:41.109Z,7.73
2019-02-12T08:15:21.148Z,7.17
2019-02-12T08:17:02.786Z,7.15
2019-02-12T08:19:04.120Z,6.90
2019-02-12T08:20:41.513Z,7.05
2019-02-12T08:22:26.582Z,6.53
2019-02-12T08:24:14.004Z,6.45
2019-02-12T08:25:47.557Z,6.73
2019-02-12T08:27:43.161Z,7.40
2019-02-12T08:29:43.255Z,6.72
2019-02-12T08:31:25.373Z,7.17
2019-02-12T08:32:49.871Z,6.97
2019-02-12T08:34:06.879Z,6.67
2019-02-12T08:35:57.069Z,8.97
2019-02-12T08:37:28.834Z,6.73
2019-02-12T08:39:04.240Z,7.70
2019-02-12T08:40:50.175Z,7.40
2019-02-12T08:42:23.506Z,6.67
2019-02-12T08:43:58.457Z,6.33
2019-02-12T08:45:52.957Z,6.97
2019-02-12T08:47:26.832Z,7.03
2019-02-12T08:49:19.642Z,7.00
2019-02-12T08:51:03.882Z,6.53
2019-02-12T08:53:20.446Z,5.70
2019-02-12T08:55:03.646Z,6.90
2019-02-12T08:56:27.274Z,6.03
2019-02-12T08:58:10.625Z,6.80
2019-02-12T08:59:27.171Z,6.13
2019-02-12T09:01:08.394Z,6.80
2019-02-12T09:02:45.372Z,7.20
2019-02-12T09:04:17.852Z,6.90
2019-02-12T09:06:17.236Z,7.23
2019-02-12T09:07:59.644Z,7.50
2019-02-12T09:09:45.722Z,7.90
2019-02-12T09:11:13.301Z,6.10
2019-02-12T09:12:54.300Z,6.83
2019-02-12T09:14:40.270Z,7.70
2019-02-12T09:16:27.725Z,6.30
2019-02-12T09:18:08.857Z,7.23
2019-02-12T09:19:21.814Z,6.70
2019-02-12T09:21:19.678Z,6.47
2019-02-12T09:22:46.034Z,7.07
2019-02-12T09:24:35.330Z,6.50
2019-02-12T09:26:07.118Z,6.27
2019-02-12T09:27:44.586Z,6.10
2019-02-12T09:29:22.278Z,6.63
2019-02-12T09:31:13.178Z,7.20
2019-02-12T09:32:49.143Z,6.13
2019-02-12T09:34:23.835Z,6.47
2019-02-12T09:35:42.298Z,6.13
2019-02-12T09:37:19.364Z,6.03
2019-02-12T09:39:05.539Z,6.00
2019-02-12T09:40:52.486Z,6.13
2019-02-12T09:42:38.828Z,6.27
2019-02-12T09:44:52.897Z,6.30
2019-02-12T09:46:22.691Z,7.03
2019-02-12T09:48:07.642Z,5.83
2019-02-12T09:50:07.135Z,7.07
2019-02-12T09:51:29.220Z,6.07
2019-02-12T09:53:28.385Z,5.73
2019-02-12T09:55:13.051Z,5.73
2019-02-12T09:57:03.275Z,5.97
2019-02-12T09:59:04.719Z,6.83
2019-02-12T10:00:43.663Z,5.83
2019-02-12T10:02:24.703Z,4.90
2019-02-12T10:04:09.115Z,5.63
2019-02-12T10:05:51.479Z,5.97
2019-02-12T10:07:26.706Z,5.57
2019-02-12T10:08:58.019Z,6.03
2019-02-12T10:10:26.981Z,5.87
2019-02-12T10:12:04.147Z,5.87
2019-02-12T10:13:50.916Z,5.43
2019-02-12T10:15:34.802Z,6.10
2019-02-12T10:17:08.768Z,5.67
2019-02-12T10:18:22.214Z,5.80
2019-02-12T10:19:55.123Z,5.93
2019-02-12T10:21:25.501Z,6.07
2019-02-12T10:23:26.948Z,6.60
2019-02-12T10:24:56.427Z,5.07
2019-02-12T10:26:07.330Z,6.43
2019-02-12T10:27:59.582Z,6.40
2019-02-12T10:29:53.601Z,5.37
2019-02-12T10:31:11.997Z,5.50
2019-02-12T10:32:15.667Z,5.37
2019-02-12T10:33:21.022Z,5.30
2019-02-12T10:34:26.285Z,6.10
2019-02-12T10:35:58.272Z,7.57
2019-02-12T10:37:08.338Z,4.80
2019-02-12T10:38:14.806Z,4.83
2019-02-12T10:39:22.949Z,5.50
2019-02-12T10:40:32.825Z,5.17
2019-02-12T10:41:39.904Z,5.27
2019-02-12T10:42:47.127Z,5.10
2019-02-12T10:43:55.434Z,5.40
2019-02-12T10:45:00.888Z,5.67
2019-02-12T10:46:10.801Z,5.50
2019-02-12T10:47:16.358Z,11.77
2019-02-12T10:48:23.038Z,5.83
2019-02-12T10:49:31.944Z,6.30
2019-02-12T10:50:42.180Z,6.53
2019-02-12T10:51:55.340Z,6.33
2019-02-12T10:53:05.716Z,5.80
2019-02-12T10:54:13.968Z,6.27
2019-02-12T10:55:24.411Z,8.60
2019-02-12T10:56:36.600Z,6.43
2019-02-12T10:57:45.362Z,8.50
2019-02-12T10:58:52.859Z,9.17
2019-02-12T10:59:57.816Z,17.67
2019-02-12T11:01:10.379Z,17.50
2019-02-12T11:02:19.058Z,20.80
2019-02-12T11:03:29.249Z,8.47
2019-02-12T11:04:36.625Z,13.10
2019-02-12T11:05:44.596Z,12.40
2019-02-12T11:06:58.406Z,12.73
2019-02-12T11:08:09.579Z,8.77
2019-02-12T11:09:15.072Z,9.17
2019-02-12T11:10:21.955Z,10.13
2019-02-12T11:11:31.162Z,8.77
2019-02-12T11:12:36.815Z,8.83
2019-02-12T11:13:42.177Z,12.80
2019-02-12T11:14:47.545Z,14.30
2019-02-12T11:15:57.077Z,12.13
2019-02-12T11:17:06.970Z,7.17
2019-02-12T11:18:21.732Z,7.93
2019-02-12T11:19:37.314Z,9.97
2019-02-12T11:20:42.638Z,7.53
2019-02-12T11:21:48.021Z,6.40
2019-02-12T11:22:59.195Z,6.63
2019-02-12T11:24:05.283Z,7.47
2019-02-12T11:25:11.788Z,9.10
2019-02-12T11:26:19.434Z,6.83
2019-02-12T11:27:25.273Z,7.00
2019-02-12T11:28:36.208Z,7.20
2019-02-12T11:29:41.612Z,6.57
2019-02-12T11:30:47.015Z,7.00
2019-02-12T11:31:52.402Z,6.73
2019-02-12T11:33:08.057Z,6.93
2019-02-12T11:34:14.986Z,6.63
2019-02-12T11:35:26.396Z,6.77
2019-02-12T11:36:35.801Z,7.57
2019-02-12T11:37:47.539Z,6.73
2019-02-12T11:39:00.049Z,6.43
2019-02-12T11:40:13.468Z,8.53
2019-02-12T11:41:19.131Z,7.50
2019-02-12T11:42:26.430Z,7.27
2019-02-12T11:43:35.333Z,8.47
2019-02-12T11:44:47.794Z,7.20
2019-02-12T11:45:54.399Z,7.73
2019-02-12T11:46:59.782Z,8.83
2019-02-12T11:48:07.117Z,6.87
2019-02-12T11:49:17.971Z,6.97
2019-02-12T11:50:26.111Z,7.80
2019-02-12T11:51:31.524Z,7.70
2019-02-12T11:52:40.142Z,7.60
2019-02-12T11:53:45.398Z,8.13
2019-02-12T11:54:51.629Z,7.67
2019-02-12T11:55:56.870Z,8.10
2019-02-12T11:57:02.299Z,8.10
2019-02-12T11:58:07.805Z,8.53
2019-02-12T11:59:14.248Z,8.17
2019-02-12T12:00:25.315Z,8.30
2019-02-12T12:01:32.418Z,8.47
2019-02-12T12:02:42.180Z,8.63
2019-02-12T12:03:48.136Z,9.10
2019-02-12T12:04:53.492Z,8.73
2019-02-12T12:06:03.114Z,8.33
2019-02-12T12:07:11.229Z,9.03
2019-02-12T12:08:19.226Z,9.57
2019-02-12T12:09:29.376Z,9.10
2019-02-12T12:10:37.271Z,9.33
2019-02-12T12:11:42.623Z,10.30
2019-02-12T12:12:48.260Z,9.93
2019-02-12T12:13:55.417Z,9.30
2019-02-12T12:15:08.218Z,10.10
2019-02-12T12:16:20.610Z,11.50
2019-02-12T12:17:25.874Z,12.03
2019-02-12T12:18:34.224Z,10.73
2019-02-12T12:19:48.007Z,12.27
2019-02-12T12:20:58.471Z,11.73
2019-02-12T12:22:12.327Z,12.30
2019-02-12T12:23:20.426Z,12.33
2019-02-12T12:24:30.122Z,12.27
2019-02-12T12:25:36.720Z,13.40
2019-02-12T12:26:44.434Z,12.07
2019-02-12T12:27:51.519Z,10.93
2019-02-12T12:28:58.589Z,13.00
2019-02-12T12:30:05.278Z,12.53
2019-02-12T12:31:10.835Z,11.87
2019-02-12T12:32:16.547Z,12.13
2019-02-12T12:33:22.746Z,12.13
2019-02-12T12:34:31.815Z,13.00
2019-02-12T12:35:39.694Z,11.77
2019-02-12T12:36:46.028Z,11.33
2019-02-12T12:37:53.081Z,11.60
2019-02-12T12:38:58.744Z,11.03
2019-02-12T12:40:04.570Z,11.23
2019-02-12T12:41:11.723Z,10.87
2019-02-12T12:42:24.246Z,10.87
2019-02-12T12:43:32.326Z,10.93
2019-02-12T12:44:43.471Z,10.33
2019-02-12T12:45:52.900Z,11.07
2019-02-12T12:47:03.737Z,9.70
2019-02-12T12:48:10.972Z,10.73
2019-02-12T12:49:19.067Z,10.73
2019-02-12T12:50:28.701Z,9.07
2019-02-12T12:51:35.976Z,9.10
2019-02-12T12:52:42.273Z,8.23
2019-02-12T12:53:53.705Z,8.37
2019-02-12T12:55:04.005Z,8.83
2019-02-12T12:56:12.668Z,8.70
2019-02-12T12:57:19.473Z,8.83
2019-02-12T12:58:26.080Z,8.07
2019-02-12T12:59:31.453Z,7.97
2019-02-12T13:00:39.727Z,8.77
2019-02-12T13:01:45.414Z,8.07
2019-02-12T13:02:51.788Z,7.87
2019-02-12T13:04:00.205Z,8.07
2019-02-12T13:05:08.014Z,7.90
2019-02-12T13:06:17.273Z,7.70
2019-02-12T13:07:22.750Z,8.23
2019-02-12T13:08:28.438Z,7.40
2019-02-12T13:09:36.842Z,7.73
2019-02-12T13:10:44.738Z,8.10
2019-02-12T13:11:50.327Z,7.07
2019-02-12T13:12:58.346Z,7.70
2019-02-12T13:14:09.077Z,7.60
2019-02-12T13:15:14.493Z,7.40
2019-02-12T13:16:19.815Z,6.87
2019-02-12T13:17:25.232Z,7.67
2019-02-12T13:18:30.471Z,7.60
2019-02-12T13:19:35.710Z,7.30
2019-02-12T13:20:42.253Z,7.03
2019-02-12T13:21:49.195Z,6.63
2019-02-12T13:22:54.430Z,6.77
2019-02-12T13:23:59.829Z,6.10
2019-02-12T13:25:23.085Z,6.20
2019-02-12T13:26:30.266Z,6.47
2019-02-12T13:27:42.224Z,6.80
2019-02-12T13:28:48.518Z,6.07
2019-02-12T13:30:00.524Z,6.47
2019-02-12T13:31:07.992Z,6.50
2019-02-12T13:32:18.525Z,6.40
2019-02-12T13:33:27.978Z,6.43
2019-02-12T13:34:33.203Z,6.67
2019-02-12T13:35:41.585Z,6.73
2019-02-12T13:36:48.885Z,6.57
2019-02-12T13:37:55.296Z,6.60
2019-02-12T13:39:01.933Z,6.47
2019-02-12T13:40:12.880Z,6.07
2019-02-12T13:41:19.374Z,7.43
2019-02-12T13:42:24.709Z,7.80
2019-02-12T13:43:30.149Z,6.50
2019-02-12T13:44:35.507Z,7.17
2019-02-12T13:45:40.861Z,7.33
2019-02-12T13:46:49.242Z,6.03
2019-02-12T13:47:55.960Z,7.00
2019-02-12T13:49:01.343Z,7.60
2019-02-12T13:50:08.671Z,6.83
2019-02-12T13:51:13.991Z,7.43
2019-02-12T13:52:19.316Z,6.90
2019-02-12T13:53:24.717Z,7.83
2019-02-12T13:54:30.138Z,6.43
2019-02-12T13:55:36.648Z,7.80
2019-02-12T13:56:42.130Z,6.67
2019-02-12T13:57:47.714Z,7.13
2019-02-12T13:58:53.039Z,7.33
2019-02-12T14:00:02.375Z,7.10
2019-02-12T14:01:09.832Z,7.40
2019-02-12T14:02:17.833Z,6.80
2019-02-12T14:03:26.068Z,7.10
2019-02-12T14:04:31.363Z,7.53
2019-02-12T14:05:36.698Z,7.10
2019-02-12T14:06:43.416Z,7.23
2019-02-12T14:07:50.624Z,7.03
2019-02-12T14:09:02.363Z,7.37
2019-02-12T14:10:11.638Z,7.73
2019-02-12T14:11:19.819Z,8.93
2019-02-12T14:12:25.494Z,8.73
2019-02-12T14:13:31.477Z,8.30
2019-02-12T14:14:40.616Z,8.80
2019-02-12T14:15:46.123Z,8.70
2019-02-12T14:16:51.660Z,8.33
2019-02-12T14:17:59.511Z,8.27
2019-02-12T14:19:06.941Z,8.63
2019-02-12T14:20:19.257Z,7.90
2019-02-12T14:21:27.116Z,8.37
2019-02-12T14:22:33.647Z,7.53
2019-02-12T14:23:42.877Z,8.93
2019-02-12T14:24:49.357Z,8.40
2019-02-12T14:26:00.486Z,8.60
2019-02-12T14:27:10.093Z,8.43
2019-02-12T14:28:20.077Z,8.83
2019-02-12T14:29:33.202Z,8.60
2019-02-12T14:30:43.390Z,9.23
2019-02-12T14:31:53.048Z,9.07
2019-02-12T14:33:00.945Z,8.87
2019-02-12T14:34:11.632Z,8.47
2019-02-12T14:35:19.288Z,8.90
2019-02-12T14:36:29.800Z,9.70
2019-02-12T14:37:38.951Z,9.50
2019-02-12T14:38:45.565Z,9.93
2019-02-12T14:39:53.818Z,9.07
2019-02-12T14:41:03.881Z,8.47
2019-02-12T14:42:13.610Z,9.33
2019-02-12T14:43:23.376Z,9.97
2019-02-12T14:44:29.825Z,9.63
2019-02-12T14:45:36.614Z,9.40
2019-02-12T14:46:41.921Z,10.57
2019-02-12T14:47:52.966Z,9.70
2019-02-12T14:49:06.190Z,9.73
2019-02-12T14:50:16.305Z,9.33
2019-02-12T14:51:22.021Z,9.90
2019-02-12T14:52:29.005Z,10.00
2019-02-12T14:53:40.537Z,10.10
2019-02-12T14:54:48.717Z,10.83
2019-02-12T14:55:59.471Z,10.10
2019-02-12T14:57:05.095Z,9.77
2019-02-12T14:58:11.622Z,10.57
2019-02-12T14:59:18.652Z,11.07
2019-02-12T15:00:27.665Z,10.47
2019-02-12T15:01:36.747Z,11.07
2019-02-12T15:02:45.398Z,10.03
2019-02-12T15:03:53.865Z,10.80
2019-02-12T15:05:00.662Z,10.30
2019-02-12T15:06:13.269Z,10.73
2019-02-12T15:07:20.959Z,11.03
2019-02-12T15:08:28.919Z,10.30
2019-02-12T15:09:38.109Z,11.27
2019-02-12T15:10:48.751Z,11.03
2019-02-12T15:11:57.506Z,10.23
2019-02-12T15:13:03.997Z,11.50
2019-02-12T15:14:11.190Z,11.13
2019-02-12T15:15:16.862Z,10.57
2019-02-12T15:16:27.236Z,11.43
2019-02-12T15:17:43.626Z,10.93
2019-02-12T15:18:49.908Z,10.97
2019-02-12T15:19:55.219Z,11.23
2019-02-12T15:21:00.594Z,10.53
2019-02-12T15:22:05.924Z,11.47
2019-02-12T15:23:11.204Z,10.97
2019-02-12T15:24:16.363Z,12.10
2019-02-12T15:25:21.548Z,11.93
2019-02-12T15:26:26.828Z,12.00
2019-02-12T15:27:34.507Z,11.10
2019-02-12T15:28:39.695Z,12.13
2019-02-12T15:29:44.986Z,11.63
2019-02-12T15:30:50.244Z,11.97
2019-02-12T15:31:55.522Z,11.60
2019-02-12T15:33:00.748Z,11.40
2019-02-12T15:34:06.026Z,11.70
2019-02-12T15:35:12.365Z,11.70
2019-02-12T15:36:17.557Z,11.47
2019-02-12T15:37:22.825Z,12.47
2019-02-12T15:38:28.012Z,11.93
2019-02-12T15:39:33.263Z,11.30
2019-02-12T15:40:38.579Z,11.03
2019-02-12T15:41:43.739Z,11.77
2019-02-12T15:42:48.966Z,12.37
2019-02-12T15:43:54.328Z,11.70
2019-02-12T15:44:59.836Z,12.50
2019-02-12T15:46:05.209Z,12.43
2019-02-12T15:47:10.446Z,11.30
2019-02-12T15:48:15.737Z,12.23
2019-02-12T15:49:21.020Z,12.90
2019-02-12T15:50:26.407Z,12.67
2019-02-12T15:51:31.728Z,12.27
2019-02-12T15:52:36.962Z,12.00